Erwinville, LA

5:57 AM CDT on August 04, 2015 (GMT -0500)
Erwinville | | Change Station
CLOSE
Current Station
Personal Weather Station
Location: Erwinville, LA
Elevation: 30 ft
Nearby Weather Stations
Active Advisory: Flood Warning

Elev 30 ft 30.53 °N, 91.41 °W | Updated 5 seconds ago

Clear
Clear
74.1 °F
Feels Like 70 °F
N
0.0
Wind Variable Wind from South
Gusts 0.0 mph

Today
High -- | Low -- °F
--% Chance of Precip.
Yesterday
High -- | Low -- °F
Precip. -- in
6:25 AM 7:57 PM
Waning Gibbous, 78% visible
Pressure 29.95 in
Visibility 10.0 miles
Clouds Clear
Heat Index 70 °F
Dew Point 74 °F
Humidity 99%
Rainfall 0.00 in
Snow Depth Not available.
UV 0 out of 12
Pollen 3.30 out of 12
Air Quality Not available.
Flu Activity Not available.
METAR KBTR 041053Z AUTO 04003KT 10SM CLR 24/22 A2996 RMK AO2 SLP142 T02390222 TSNO

More Conditions Fewer Conditions

Pressure 29.95 in
Visibility 10.0 miles
Clouds Clear
Heat Index 70 °F
Dew Point 74 °F
Humidity 99%
Rainfall 0.00 in
Snow Depth Not available.
UV 0 out of 12
Pollen 3.30 out of 12
Air Quality Not available.
Flu Activity Not available.
METAR KBTR 041053Z AUTO 04003KT 10SM CLR 24/22 A2996 RMK AO2 SLP142 T02390222 TSNO

More Conditions Fewer Conditions

10-Day Weather Forecast

×

Almanac

Astronomy

Aug. 04, 2015 Rise Set
Actual Time
Civil Twilight
Nautical Twilight
Astronomical Twilight
Moon
Length of Visible Light
Length of Day
Tomorrow will be .
, % of the Moon is Illuminated

Today's Extremes

State Highs State Lows

Community

WunderPhotos

Upload Photos

1,843,883 photos uploaded!

WunderBlogs® & News

Nearby

Air Quality

  Air Quality AQ Index Pollutant
Not available.

Snow Depth

Station Depth Elevation

Earthquake Activity

City Distance Mag. Time & Date
Minimum magnitude displayed is 2.5.

Coastal Water Temperatures

Place Temperature

Stations

Nearby Weather Stations

Station Location Temp. Windchill Dew Point Humidity Wind Precip. Elev Updated Type
                   
Flood Warning
Statement as of 8:14 PM CDT on August 03, 2015

The Flood Warning continues for
the Mississippi River at Baton Rouge.
* Until further notice.
* At 7:00 PM Monday the stage was 38.1 feet.
* Moderate flooding is occurring and moderate flooding is forecast.
* Flood stage is 35.0 feet.
* Forecast... the river will continue falling to a stage near 35.0 feet
by Saturday morning.
* Impact... at 38.0 feet... river traffic and Industrial activity on the
river side of the levees will be greatly affected. Navigational
safety regulations will be strictly enforced.


Lat... Lon 3074 9130 3071 9159 3032 9130 3035 9113